Tiempo atmosférico en la estación meteorológica de Astorga, León (919 m.)



Fecha
DESCASC
Temp. máxima en grados centígrados (hora)
DESCASC
Temp. mínima en grados centígrados (hora)
DESCASC
Temp. media en grados centígrados
DESCASC
Racha de viento máxima en m/sg (hora)
DESCASC
Velocidad máxima media en intervalos de 10 minutos(hora)
DESCASC
Precipitaciones diarias en mm
DESCASC
Precipitaciones de 00:00 a 06:00 en mm
DESCASC
Precipitaciones de 06:00 a 12:00 en mm
DESCASC
Precipitaciones de 12:00 a 18:00 en mm
DESCASC
Precipitaciones de 18:00 a 24:00 en mm
DESCASC
06-07-2020 31.5 (17:40) 16 (07:00) 23.8 7.78 (21:50) 4.17 (21:00) 0 0 0 0 0
05-07-2020 33.7 (18:30) 14.8 (06:00) 24.3 7.22 (16:20) 4.17 (16:20) 0 0 0 0 0
04-07-2020 31.5 (18:50) 9 (07:30) 20.3 6.67 (13:20) 3.61 (16:50) 0 0 0 0 0
03-07-2020 29.2 (18:40) 6.4 (06:50) 17.8 6.94 (19:40) 3.61 (19:40) 0 0 0 0 0
02-07-2020 24.1 (18:30) 11.9 (00:00) 18 9.17 (15:10) 5.83 (13:30) 0 0 0 0 0
01-07-2020 27.8 (15:10) 14.7 (00:00) 21.2 12.78 (16:10) 6.94 (17:30) 0 0 0 0 0
30-06-2020 29.8 (15:00) 13.4 (00:00) 21.6 10.28 (16:00) 6.39 (16:00) 0 0 0 0 0
29-06-2020 31.2 (18:50) 11.9 (00:00) 21.6 10.56 (18:30) 3.89 (19:10) 0 0 0 0 0
28-06-2020 26.9 (17:40) 12.2 (00:00) 19.5 12.22 (15:20) 6.67 (18:30) 0 0 0 0 0
27-06-2020 25.2 (15:50) 14.2 (00:00) 19.7 11.39 (17:40) 7.22 (17:40) 0 0 0 0 0
26-06-2020 25.9 (16:20) 12.8 (00:00) 19.3 10.56 (21:00) 6.11 (16:00) 0 0 0 0 0
25-06-2020 29.7 (17:50) 12.4 (00:00) 21.1 11.39 (16:20) 6.67 (16:00) 0 0 0 0 0
24-06-2020 30.1 (15:30) 13.7 (00:00) 21.9 12.22 (20:10) 8.61 (22:00) 8 0 0 0 8
23-06-2020 35.4 (19:10) 11.6 (00:00) 23.5 9.17 (20:20) 6.39 (20:20) 0 0 0 0 0
22-06-2020 32.1 (20:40) 9.4 (00:00) 20.7 6.67 (16:20) 3.61 (16:50) 0 0 0 0 0
21-06-2020 28 (16:20) 10 (00:00) 19 10.83 (18:30) 6.94 (18:30) 0 0 0 0 0
20-06-2020 29 (17:20) 8.5 (00:00) 18.8 10.83 (19:10) 6.39 (19:30) 0 0 0 0 0
19-06-2020 26.3 (18:00) 5.2 (00:00) 15.7 11.11 (17:20) 5.83 (17:20) 0 0 0 0 0
18-06-2020 23.3 (18:20) 4.5 (00:00) 13.9 9.72 (20:40) 5.83 (20:40) 0 0 0 0 0
17-06-2020 20.5 (17:40) 7.2 (00:00) 13.8 8.06 (19:50) 4.17 (19:30) 0 0 0 0 0
16-06-2020 20.9 (15:10) 8.4 (00:00) 14.6 12.78 (14:00) 7.22 (14:00) 0 0 0 0 0
15-06-2020 19.7 (15:50) 7.3 (00:00) 13.5 8.89 (17:10) 5.83 (13:20) 0 0 0 0 0
14-06-2020 18.9 (15:20) 7.1 (00:00) 13 9.72 (18:00) 5.83 (14:30) 0 0 0 0 0
13-06-2020 17.7 (18:30) 8 (00:00) 12.9 11.39 (16:10) 7.5 (11:40) 0 0 0 0 0
12-06-2020 14.7 (19:40) 7.1 (00:00) 10.9 12.78 (14:20) 7.78 (14:20) 0.6 0.4 0 0.2 0
11-06-2020 15.5 (11:30) 8.4 (00:00) 11.9 13.33 (18:10) 7.5 (17:00) 1.6 0 0 1.6 0
10-06-2020 23.9 (18:20) 5.2 (00:00) 14.5 9.44 (17:30) 4.72 (19:30) 0 0 0 0 0
09-06-2020 22.1 (18:30) 1.8 (00:00) 12 7.78 (20:20) 4.72 (17:40) 0 0 0 0 0
08-06-2020 19.6 (17:50) 6.1 (07:00) 12.9 9.72 (20:40) 6.67 (20:40) 0 0 0 0 0
07-06-2020 19.3 (13:20) 9 (00:00) 14.1 8.06 (12:00) 5 (15:40) 0.2 0 0 0.2 0

Gráficas

Temp. máximas Temp. mínimas Temp. medias Precipitaciones Rachas de viento máximas Velocidades máximas media en intervalos de 10 minutos

Datos horarios

Fecha y hora oficial Temperatura (ºC) Velocidad del viento (km/h) Dirección del viento Racha (km/h) Dirección de racha Precipitación (mm) Presión (hPa) Tendencia (hPa) Humedad (%)
2020-07-06 23:00:00 21.2 5 Este 26 Este 0 -- -- 52
2020-07-06 22:00:00 24.2 12 Sudeste 28 Sudeste 0 -- -- 49
2020-07-06 21:00:00 27.4 15 Sudeste 23 Sur 0 -- -- 45
2020-07-06 20:00:00 30.1 13 Sudeste 19 Sudeste 0 -- -- 41
2020-07-06 19:00:00 30.7 12 Sudeste 21 Sudeste 0 -- -- 40
2020-07-06 18:00:00 30.5 12 Sudeste 23 Sudeste 0 -- -- 42
2020-07-06 17:00:00 30 10 Sudeste 22 Sudeste 0 -- -- 42
2020-07-06 16:00:00 30.1 11 Sudeste 23 Sur 0 -- -- 43
2020-07-06 15:00:00 28.1 13 Sudeste 22 Sudeste 0 -- -- 46
2020-07-06 14:00:00 27 13 Sur 23 Sur 0 -- -- 49
2020-07-06 13:00:00 26 13 Sur 23 Sur 0 -- -- 50
2020-07-06 12:00:00 24.8 9 Sur 21 Sur 0 -- -- 53
2020-07-06 11:00:00 23.5 7 Sudeste 17 Sudoeste 0 -- -- 56
2020-07-06 10:00:00 21.5 10 Sur 18 Sur 0 -- -- 63
2020-07-06 09:00:00 18.7 5 Sudoeste 10 Sur 0 -- -- 74
2020-07-06 08:00:00 17.1 4 Norte 6 Norte 0 -- -- 83
2020-07-06 07:00:00 16 4 Nordeste 7 Oeste 0 -- -- 86
2020-07-06 06:00:00 17.8 5 Sudoeste 10 Sudoeste 0 -- -- 80
2020-07-06 05:00:00 18.4 5 Sudoeste 9 Sudoeste 0 -- -- 80
2020-07-06 04:00:00 18.6 7 Sudoeste 9 Sudoeste 0 -- -- 81
2020-07-06 03:00:00 19.8 3 Sudoeste 8 Norte 0 -- -- 78
2020-07-06 02:00:00 20 7 Norte 10 Nordeste 0 -- -- 76
2020-07-06 01:00:00 22.2 3 Este 22 Sudeste 0 -- -- 68
2020-07-06 00:00:00 23.8 9 Noroeste 17 Este 0 -- -- 62
2020-07-05 23:00:00 24.6 9 Noroeste 16 Noroeste 0 -- -- 59
2020-07-05 22:00:00 26.3 7 Norte 13 Noroeste 0 -- -- 51
2020-07-05 21:00:00 27.9 6 Sudeste 14 Sudeste 0 -- -- 41
2020-07-05 20:00:00 30.6 8 Sudeste 19 Sudeste 0 -- -- 37
2020-07-05 19:00:00 31.7 12 Sur 20 Sur 0 -- -- 34
2020-07-05 18:00:00 31.3 8 Sudeste 22 Sudeste 0 -- -- 34
2020-07-05 17:00:00 32.1 9 Este 26 Sudoeste 0 -- -- 34
2020-07-05 16:00:00 31.4 9 Este 26 Nordeste 0 -- -- 35
2020-07-05 15:00:00 29.6 8 Sudeste 20 Sudeste 0 -- -- 38
2020-07-05 14:00:00 28.2 9 Sur 19 Sur 0 -- -- 40
2020-07-05 13:00:00 27.2 7 Sudeste 17 Sur 0 -- -- 43
2020-07-05 12:00:00 25.6 9 Sur 16 Sur 0 -- -- 47
2020-07-05 11:00:00 23.9 6 Sudeste 13 Sur 0 -- -- 50
2020-07-05 10:00:00 23.3 4 Sur 7 Sur 0 -- -- 51
2020-07-05 09:00:00 19 3 Nordeste 8 Norte 0 -- -- 66
2020-07-05 08:00:00 16.3 5 Norte 8 Norte 0 -- -- 75
2020-07-05 07:00:00 14.8 5 Norte 6 Norte 0 -- -- 82
2020-07-05 06:00:00 14.8 5 Norte 8 Norte 0 -- -- 81
2020-07-05 05:00:00 15.8 0 Calma 6 Sudoeste 0 -- -- 78
2020-07-05 04:00:00 16.5 3 Oeste 5 Oeste 0 -- -- 77
2020-07-05 03:00:00 17.6 0 Calma 7 Oeste 0 -- -- 71
2020-07-05 02:00:00 19.7 3 Noroeste 8 Noroeste 0 -- -- 63
2020-07-05 01:00:00 19.8 3 Noroeste 11 Nordeste 0 -- -- 63
2020-07-05 00:00:00 20.4 7 Sudeste 16 Norte 0 -- -- 63
2020-07-04 23:00:00 21.8 9 Norte 15 Norte 0 -- -- 56
2020-07-04 22:00:00 25 4 Sur 14 Norte 0 -- -- 42
2020-07-04 21:00:00 29.2 9 Noroeste 19 Norte 0 -- -- 37
2020-07-04 20:00:00 30.9 9 Noroeste 21 Norte 0 -- -- 32
2020-07-04 19:00:00 31.4 12 Norte 22 Norte 0 -- -- 31
2020-07-04 18:00:00 31.3 13 Nordeste 19 Norte 0 -- -- 31
2020-07-04 17:00:00 29.2 9 Sur 21 Sur 0 -- -- 31
2020-07-04 16:00:00 29.5 6 Oeste 21 Sur 0 -- -- 30
2020-07-04 15:00:00 27.8 9 Sudeste 20 Sudeste 0 -- -- 32
2020-07-04 14:00:00 26.1 8 Sur 24 Sur 0 -- -- 32
2020-07-04 13:00:00 25.8 7 Sudeste 15 Sudeste 0 -- -- 37
2020-07-04 12:00:00 23.6 4 Sur 14 Sudeste 0 -- -- 43
2020-07-04 11:00:00 20.9 5 Sur 13 Sur 0 -- -- 52
2020-07-04 10:00:00 19.4 3 Sudoeste 8 Sur 0 -- -- 56
2020-07-04 09:00:00 13.6 2 Sur 5 Norte 0 -- -- 77
2020-07-04 08:00:00 10.7 3 Sudeste 6 Norte 0 -- -- 85
2020-07-04 07:00:00 9.5 3 Norte 6 Norte 0 -- -- 89
2020-07-04 06:00:00 12.6 3 Sudoeste 7 Sudoeste 0 -- -- 78
2020-07-04 05:00:00 12.7 4 Oeste 6 Oeste 0 -- -- 80
2020-07-04 04:00:00 13.5 4 Este 6 Sudeste 0 -- -- 79
2020-07-04 03:00:00 13.1 6 Nordeste 10 Nordeste 0 -- -- 78
2020-07-04 02:00:00 14.5 8 Este 10 Este 0 -- -- 69
2020-07-04 01:00:00 16 4 Sur 8 Sudeste 0 -- -- 59
2020-07-04 00:00:00 17.1 4 Noroeste 9 Noroeste 0 -- -- 55
2020-07-03 23:00:00 18.2 4 Sudoeste 15 Noroeste 0 -- -- 49
2020-07-03 22:00:00 20.4 8 Noroeste 16 Noroeste 0 -- -- 38
2020-07-03 21:00:00 24.9 11 Noroeste 19 Noroeste 0 -- -- 29
2020-07-03 20:00:00 27.8 9 Noroeste 25 Norte 0 -- -- 26
2020-07-03 19:00:00 27.6 7 Sudeste 18 Sudeste 0 -- -- 30
2020-07-03 18:00:00 27.6 6 Sur 22 Nordeste 0 -- -- 25
2020-07-03 17:00:00 25.9 10 Sur 20 Sur 0 -- -- 32
2020-07-03 16:00:00 24.8 6 Sudeste 14 Sudoeste 0 -- -- 34
2020-07-03 15:00:00 23.1 7 Nordeste 18 Sur 0 -- -- 36
2020-07-03 14:00:00 21 9 Sur 23 Sudeste 0 -- -- 42
2020-07-03 13:00:00 20.5 7 Norte 16 Nordeste 0 -- -- 44
2020-07-03 12:00:00 17 9 Sudoeste 18 Sur 0 -- -- 54
2020-07-03 11:00:00 16.3 6 Sur 13 Sur 0 -- -- 56
2020-07-03 10:00:00 14.2 6 Sur 9 Sudeste 0 -- -- 63
2020-07-03 09:00:00 10.6 3 Este 6 Nordeste 0 -- -- 78
2020-07-03 08:00:00 8 3 Nordeste 6 Norte 0 -- -- 87
2020-07-03 07:00:00 6.4 5 Noroeste 7 Oeste 0 -- -- 93
2020-07-03 06:00:00 6.7 6 Norte 12 Norte 0 -- -- 91
2020-07-03 05:00:00 7.2 7 Norte 12 Norte 0 -- -- 90
2020-07-03 04:00:00 8 9 Norte 14 Norte 0 -- -- 88
2020-07-03 03:00:00 8.8 9 Norte 13 Norte 0 -- -- 86
2020-07-03 02:00:00 10.4 8 Oeste 15 Oeste 0 -- -- 80
2020-07-03 01:00:00 11.2 3 Este 12 Nordeste 0 -- -- 79
2020-07-03 00:00:00 12.5 2 Sudeste 16 Nordeste 0 -- -- 74
2020-07-02 23:00:00 14 5 Noroeste 16 Noroeste 0 -- -- 67
2020-07-02 22:00:00 15.6 11 Noroeste 25 Noroeste 0 -- -- 61
2020-07-02 21:00:00 19.7 13 Noroeste 24 Noroeste 0 -- -- 47
2020-07-02 20:00:00 21.6 15 Noroeste 27 Noroeste 0 -- -- 42
2020-07-02 19:00:00 23.2 17 Noroeste 31 Noroeste 0 -- -- 39
2020-07-02 18:00:00 23.5 19 Noroeste 31 Noroeste 0 -- -- 39
2020-07-02 17:00:00 24 14 Norte 31 Noroeste 0 -- -- 43
2020-07-02 16:00:00 23.3 15 Norte 33 Norte 0 -- -- 46
2020-07-02 15:00:00 23.1 16 Norte 30 Norte 0 -- -- 45
2020-07-02 14:00:00 20.9 15 Norte 30 Norte 0 -- -- 49
2020-07-02 13:00:00 21.4 16 Norte 31 Norte 0 -- -- 49
2020-07-02 12:00:00 20.5 15 Norte 24 Norte 0 -- -- 51
2020-07-02 11:00:00 19.4 7 Noroeste 26 Noroeste 0 -- -- 54
2020-07-02 10:00:00 19.6 6 Noroeste 22 Norte 0 -- -- 55
2020-07-02 09:00:00 16.3 10 Noroeste 22 Noroeste 0 -- -- 70
2020-07-02 08:00:00 13.8 11 Noroeste 22 Norte 0 -- -- 79
2020-07-02 07:00:00 12.7 13 Norte 20 Norte 0 -- -- 87
2020-07-02 06:00:00 12.6 4 Nordeste 14 Norte 0 -- -- 85
2020-07-02 05:00:00 14.1 7 Oeste 26 Noroeste 0 -- -- 75
2020-07-02 04:00:00 14.8 16 Noroeste 31 Oeste 0 -- -- 72
2020-07-02 03:00:00 14.3 10 Noroeste 20 Noroeste 0 -- -- 77
2020-07-02 02:00:00 14.1 9 Noroeste 19 Noroeste 0 -- -- 81
2020-07-02 01:00:00 15.7 13 Noroeste 21 Noroeste 0 -- -- 75
2020-07-02 00:00:00 16.3 14 Noroeste 24 Noroeste 0 -- -- 73
2020-07-01 23:00:00 16.6 10 Noroeste 14 Norte 0 -- -- 74
2020-07-01 22:00:00 18.7 8 Noroeste 24 Noroeste 0 -- -- 65
2020-07-01 21:00:00 22.6 10 Oeste 32 Noroeste 0 -- -- 49
2020-07-01 20:00:00 23.4 24 Noroeste 39 Noroeste 0 -- -- 46
2020-07-01 19:00:00 25.3 19 Noroeste 40 Oeste 0 -- -- 42
2020-07-01 18:00:00 25.6 25 Noroeste 40 Oeste 0 -- -- 41
2020-07-01 17:00:00 27 23 Noroeste 46 Noroeste 0 -- -- 39
2020-07-01 16:00:00 27.3 22 Noroeste 45 Oeste 0 -- -- 37
2020-07-01 15:00:00 27.4 20 Noroeste 37 Norte 0 -- -- 38
2020-07-01 14:00:00 26.8 17 Noroeste 39 Noroeste 0 -- -- 43
2020-07-01 13:00:00 25.9 22 Noroeste 36 Noroeste 0 -- -- 42
2020-07-01 12:00:00 25.1 15 Noroeste 25 Noroeste 0 -- -- 47
2020-07-01 11:00:00 23.7 15 Norte 25 Norte 0 -- -- 56
2020-07-01 10:00:00 21.6 14 Norte 28 Norte 0 -- -- 63
2020-07-01 09:00:00 18.8 19 Noroeste 27 Norte 0 -- -- 75
2020-07-01 08:00:00 17.1 14 Noroeste 26 Oeste 0 -- -- 82
2020-07-01 07:00:00 15.1 8 Norte 14 Norte 0 -- -- 95
2020-07-01 06:00:00 15 8 Norte 10 Norte 0 -- -- 95
2020-07-01 05:00:00 15.6 6 Norte 13 Norte 0 -- -- 95
2020-07-01 04:00:00 15.8 6 Norte 10 Norte 0 -- -- 92
2020-07-01 03:00:00 16.2 3 Nordeste 10 Nordeste 0 -- -- 86
2020-07-01 02:00:00 16.9 8 Nordeste 16 Oeste 0 -- -- 81
2020-07-01 01:00:00 17.7 7 Noroeste 12 Noroeste 0 -- -- 83
2020-07-01 00:00:00 19 6 Noroeste 12 Noroeste 0 -- -- 69
2020-06-30 23:00:00 19.6 7 Norte 12 Norte 0 -- -- 68
2020-06-30 22:00:00 21.2 12 Norte 22 Norte 0 -- -- 59
2020-06-30 21:00:00 21.8 17 Nordeste 22 Norte 0 -- -- 61
2020-06-30 20:00:00 21.8 11 Nordeste 18 Norte 0 -- -- 70
2020-06-30 19:00:00 24.3 13 Norte 18 Norte 0 -- -- 63
2020-06-30 18:00:00 26.1 10 Norte 18 Noroeste 0 -- -- 54
2020-06-30 17:00:00 24.4 11 Norte 30 Norte 0 -- -- 57
2020-06-30 16:00:00 25.6 23 Norte 37 Norte 0 -- -- 48
2020-06-30 15:00:00 29.8 6 Este 20 Este 0 -- -- 39
2020-06-30 14:00:00 28.1 8 Sur 20 Sur 0 -- -- 43
2020-06-30 13:00:00 27.1 9 Sur 17 Sur 0 -- -- 45
2020-06-30 12:00:00 26 8 Sur 18 Sur 0 -- -- 45
2020-06-30 11:00:00 24.9 4 Este 9 Nordeste 0 -- -- 50
2020-06-30 10:00:00 23 4 Norte 8 Nordeste 0 -- -- 57
2020-06-30 09:00:00 18.1 5 Norte 8 Norte 0 -- -- 73
2020-06-30 08:00:00 14.6 5 Norte 7 Norte 0 -- -- 84
2020-06-30 07:00:00 13.7 3 Nordeste 6 Norte 0 -- -- 86
2020-06-30 06:00:00 14 0 Calma 7 Sudoeste 0 -- -- 84
2020-06-30 05:00:00 14.9 3 Noroeste 6 Oeste 0 -- -- 79
2020-06-30 04:00:00 16.8 4 Oeste 12 Oeste 0 -- -- 72
2020-06-30 03:00:00 17.2 5 Oeste 13 Norte 0 -- -- 72
2020-06-30 02:00:00 17.5 8 Norte 11 Noroeste 0 -- -- 71
2020-06-30 01:00:00 19 7 Sudeste 16 Este 0 -- -- 66
2020-06-30 00:00:00 19.6 6 Norte 13 Norte 0 -- -- 63
2020-06-29 23:00:00 20.8 6 Norte 15 Nordeste 0 -- -- 60
2020-06-29 22:00:00 23.4 6 Norte 16 Noroeste 0 -- -- 53
2020-06-29 21:00:00 28.3 10 Norte 18 Noroeste 0 -- -- 39
2020-06-29 20:00:00 29.4 10 Noroeste 25 Noroeste 0 -- -- 36
2020-06-29 19:00:00 30.9 9 Noroeste 38 Noroeste 0 -- -- 34
2020-06-29 18:00:00 30.3 6 Este 21 Nordeste 0 -- -- 39
2020-06-29 17:00:00 27.9 7 Nordeste 19 Nordeste 0 -- -- 40
2020-06-29 16:00:00 28.9 7 Oeste 15 Sur 0 -- -- 40
2020-06-29 15:00:00 25.9 12 Sur 27 Este 0 -- -- 45
2020-06-29 14:00:00 25.3 8 Sudeste 17 Sur 0 -- -- 47
2020-06-29 13:00:00 23.6 7 Sudeste 16 Sudeste 0 -- -- 53
2020-06-29 12:00:00 23.9 8 Nordeste 14 Nordeste 0 -- -- 51
2020-06-29 11:00:00 23.1 8 Este 15 Este 0 -- -- 56
2020-06-29 10:00:00 21.2 6 Norte 14 Norte 0 -- -- 62
2020-06-29 09:00:00 16.5 7 Norte 13 Norte 0 -- -- 81
2020-06-29 08:00:00 13.2 7 Norte 10 Nordeste 0 -- -- 93
2020-06-29 07:00:00 12.6 2 Noroeste 10 Noroeste 0 -- -- 95
2020-06-29 06:00:00 12.3 0 Calma 9 Norte 0 -- -- 94
2020-06-29 05:00:00 13.6 6 Nordeste 10 Sudeste 0 -- -- 88
2020-06-29 04:00:00 14.5 7 Sudeste 10 Sudeste 0 -- -- 85
2020-06-29 03:00:00 15.2 3 Sur 6 Noroeste 0 -- -- 81
2020-06-29 02:00:00 16 4 Noroeste 9 Noroeste 0 -- -- 77
2020-06-29 01:00:00 16.1 3 Norte 10 Noroeste 0 -- -- 76
2020-06-29 00:00:00 17.1 7 Noroeste 18 Oeste 0 -- -- 73
2020-06-28 23:00:00 17.6 12 Noroeste 22 Noroeste 0 -- -- 73
2020-06-28 22:00:00 18.6 9 Noroeste 27 Noroeste 0 -- -- 70
2020-06-28 21:00:00 22.1 15 Noroeste 43 Noroeste 0 -- -- 59
2020-06-28 20:00:00 23.9 23 Noroeste 38 Noroeste 0 -- -- 53
2020-06-28 19:00:00 25.4 24 Noroeste 37 Norte 0 -- -- 49
2020-06-28 18:00:00 26.6 22 Noroeste 34 Norte 0 -- -- 45
2020-06-28 17:00:00 26.7 18 Noroeste 36 Norte 0 -- -- 46
2020-06-28 16:00:00 26.3 22 Noroeste 44 Norte 0 -- -- 46
2020-06-28 15:00:00 25.6 21 Noroeste 34 Norte 0 -- -- 47
2020-06-28 14:00:00 25.1 17 Oeste 32 Noroeste 0 -- -- 48
2020-06-28 13:00:00 24.1 16 Oeste 30 Oeste 0 -- -- 49
2020-06-28 12:00:00 22.9 17 Noroeste 33 Noroeste 0 -- -- 51
2020-06-28 11:00:00 21.9 18 Noroeste 32 Noroeste 0 -- -- 54
2020-06-28 10:00:00 19.7 17 Noroeste 30 Noroeste 0 -- -- 61
2020-06-28 09:00:00 16.7 13 Oeste 23 Noroeste 0 -- -- 72
2020-06-28 08:00:00 14 5 Norte 10 Norte 0 -- -- 83
2020-06-28 07:00:00 12.3 8 Norte 25 Noroeste 0 -- -- 91
2020-06-28 06:00:00 12.4 18 Norte 24 Norte 0 -- -- 91
2020-06-28 05:00:00 12.7 15 Norte 23 Noroeste 0 -- -- 91
2020-06-28 04:00:00 12.9 13 Norte 18 Norte 0 -- -- 89
2020-06-28 03:00:00 13.5 7 Noroeste 17 Norte 0 -- -- 88
2020-06-28 02:00:00 14.6 5 Noroeste 14 Noroeste 0 -- -- 83
2020-06-28 01:00:00 15.3 4 Norte 12 Oeste 0 -- -- 80
2020-06-28 00:00:00 16.1 8 Noroeste 17 Oeste 0 -- -- 76
2020-06-27 23:00:00 16.5 9 Noroeste 20 Noroeste 0 -- -- 76
2020-06-27 22:00:00 18.1 14 Noroeste 35 Noroeste 0 -- -- 73
2020-06-27 21:00:00 21.1 17 Noroeste 35 Noroeste 0 -- -- 61
2020-06-27 20:00:00 22.4 20 Noroeste 40 Noroeste 0 -- -- 59
2020-06-27 19:00:00 23 21 Noroeste 40 Noroeste 0 -- -- 57
2020-06-27 18:00:00 23 20 Noroeste 41 Noroeste 0 -- -- 55
2020-06-27 17:00:00 24.6 21 Noroeste 37 Oeste 0 -- -- 52
2020-06-27 16:00:00 25 19 Noroeste 36 Noroeste 0 -- -- 49
2020-06-27 15:00:00 21 17 Noroeste 29 Noroeste 0 -- -- 60
2020-06-27 14:00:00 23.9 18 Noroeste 30 Noroeste 0 -- -- 50
2020-06-27 13:00:00 22.4 19 Noroeste 32 Noroeste 0 -- -- 53
2020-06-27 12:00:00 20.8 17 Noroeste 32 Noroeste 0 -- -- 58
2020-06-27 11:00:00 22.3 14 Noroeste 26 Noroeste 0 -- -- 56
2020-06-27 10:00:00 20.1 10 Noroeste 18 Oeste 0 -- -- 62
2020-06-27 09:00:00 17.7 6 Noroeste 16 Oeste 0 -- -- 70
2020-06-27 08:00:00 15.8 10 Oeste 21 Noroeste 0 -- -- 74
2020-06-27 07:00:00 15 12 Oeste 19 Oeste 0 -- -- 80
2020-06-27 06:00:00 15.1 7 Oeste 18 Noroeste 0 -- -- 80
2020-06-27 05:00:00 14.2 4 Noroeste 12 Oeste 0 -- -- 83
2020-06-27 04:00:00 15 4 Oeste 17 Noroeste 0 -- -- 79
2020-06-27 03:00:00 15.1 14 Noroeste 24 Noroeste 0 -- -- 79
2020-06-27 02:00:00 15.7 10 Oeste 19 Noroeste 0 -- -- 80
2020-06-27 01:00:00 16 8 Noroeste 23 Noroeste 0 -- -- 76
2020-06-27 00:00:00 16.2 12 Noroeste 26 Noroeste 0 -- -- 74
2020-06-26 23:00:00 16.6 16 Noroeste 29 Noroeste 0 -- -- 73
2020-06-26 22:00:00 17.7 12 Noroeste 33 Noroeste 0 -- -- 67
2020-06-26 21:00:00 19.6 21 Noroeste 38 Oeste 0 -- -- 57
2020-06-26 20:00:00 21.6 19 Noroeste 35 Noroeste 0 -- -- 51
2020-06-26 19:00:00 24.1 19 Noroeste 36 Oeste 0 -- -- 43
2020-06-26 18:00:00 24.7 20 Noroeste 37 Noroeste 0 -- -- 41
2020-06-26 17:00:00 23 21 Noroeste 34 Noroeste 0 -- -- 41
2020-06-26 16:00:00 24.2 22 Noroeste 36 Noroeste 0 -- -- 38
2020-06-26 15:00:00 25.7 10 Noroeste 25 Oeste 0 -- -- 38
2020-06-26 14:00:00 23.3 7 Sudoeste 17 Oeste 0 -- -- 50
2020-06-26 13:00:00 22.9 8 Sudoeste 21 Nordeste 0 -- -- 51
2020-06-26 12:00:00 22.5 5 Noroeste 23 Norte 0 -- -- 55
2020-06-26 11:00:00 17.9 17 Norte 26 Norte 0 -- -- 68
2020-06-26 10:00:00 19.8 8 Norte 16 Norte 0 -- -- 66
2020-06-26 09:00:00 16.9 9 Noroeste 20 Norte 0 -- -- 79
2020-06-26 08:00:00 14.2 8 Norte 16 Noroeste 0 -- -- 91
2020-06-26 07:00:00 13 10 Norte 15 Norte 0 -- -- 95
2020-06-26 06:00:00 13.3 10 Norte 15 Norte 0 -- -- 93
2020-06-26 05:00:00 13.4 8 Norte 12 Norte 0 -- -- 95
2020-06-26 04:00:00 14.4 2 Nordeste 13 Norte 0 -- -- 91
2020-06-26 03:00:00 15.4 12 Norte 22 Norte 0 -- -- 88
2020-06-26 02:00:00 16.2 9 Norte 16 Nordeste 0 -- -- 86
2020-06-26 01:00:00 16.7 11 Norte 19 Norte 0 -- -- 81
2020-06-26 00:00:00 17.3 11 Norte 14 Norte 0 -- -- 77
2020-06-25 23:00:00 19.2 5 Noroeste 19 Noroeste 0 -- -- 68
2020-06-25 22:00:00 21.4 12 Noroeste 23 Noroeste 0 -- -- 61
2020-06-25 21:00:00 24.9 12 Noroeste 27 Noroeste 0 -- -- 52
2020-06-25 20:00:00 24.8 18 Noroeste 30 Noroeste 0 -- -- 53
2020-06-25 19:00:00 27.6 15 Noroeste 30 Norte 0 -- -- 47
2020-06-25 18:00:00 29.2 15 Noroeste 34 Noroeste 0 -- -- 44
2020-06-25 17:00:00 28.5 18 Norte 41 Sudoeste 0 -- -- 45
2020-06-25 16:00:00 27.3 24 Sur 38 Sur 0 -- -- 42
2020-06-25 15:00:00 28.3 6 Este 26 Sur 0 -- -- 46
2020-06-25 14:00:00 26.5 6 Sudeste 23 Sudeste 0 -- -- 50
2020-06-25 13:00:00 24.6 13 Sudeste 22 Norte 0 -- -- 53
2020-06-25 12:00:00 24.1 9 Sudeste 17 Sudeste 0 -- -- 53
2020-06-25 11:00:00 24.2 5 Sudeste 13 Este 0 -- -- 52
2020-06-25 10:00:00 22.6 6 Norte 13 Norte 0 -- -- 56
2020-06-25 09:00:00 18 9 Norte 13 Norte 0 -- -- 74
2020-06-25 08:00:00 14.2 10 Norte 13 Norte 0 -- -- 86
2020-06-25 07:00:00 12.9 5 Noroeste 11 Norte 0 -- -- 94
2020-06-25 06:00:00 12.4 5 Sur 11 Este 0 -- -- 93
2020-06-25 05:00:00 13.4 2 Oeste 11 Norte 0 -- -- 89
2020-06-25 04:00:00 14.2 8 Noroeste 10 Norte 0 -- -- 83
2020-06-25 03:00:00 13.5 3 Norte 5 Norte 0 -- -- 94
2020-06-25 02:00:00 13.8 5 Nordeste 9 Noroeste 0 -- -- 92
2020-06-25 01:00:00 14.7 3 Oeste 23 Norte 0 -- -- 88
2020-06-25 00:00:00 14.9 13 Norte 24 Nordeste 0 -- -- 92
2020-06-24 23:00:00 15.4 12 Norte 35 Norte 0 -- -- 88
2020-06-24 22:00:00 15.2 31 Norte 42 Norte 2 -- -- 92
2020-06-24 21:00:00 15.7 12 Noroeste 44 Norte 2.2 -- -- 91
2020-06-24 20:00:00 17 28 Norte 39 Norte 1.8 -- -- 89
2020-06-24 19:00:00 20.1 12 Oeste 26 Oeste 2 -- -- 72
2020-06-24 18:00:00 26.4 10 Este 23 Sudeste 0 -- -- 39
2020-06-24 17:00:00 26.6 6 Este 33 Sur 0 -- -- 38
2020-06-24 16:00:00 27.8 24 Sudeste 36 Sudeste 0 -- -- 35
2020-06-24 15:00:00 28.6 11 Sudeste 21 Sudeste 0 -- -- 35
2020-06-24 14:00:00 26.9 14 Sudeste 34 Sur 0 -- -- 41
2020-06-24 13:00:00 27.9 14 Sudeste 24 Sudeste 0 -- -- 37
2020-06-24 12:00:00 29.4 8 Este 22 Este 0 -- -- 35
2020-06-24 11:00:00 26.8 8 Este 17 Este 0 -- -- 34
2020-06-24 10:00:00 26.9 6 Norte 12 Norte 0 -- -- 40
2020-06-24 09:00:00 20.3 6 Norte 10 Norte 0 -- -- 59
2020-06-24 08:00:00 16 6 Norte 9 Norte 0 -- -- 69
2020-06-24 07:00:00 13.8 5 Noroeste 8 Norte 0 -- -- 73
2020-06-24 06:00:00 14.8 5 Norte 9 Oeste 0 -- -- 72
2020-06-24 05:00:00 19.8 5 Oeste 8 Oeste 0 -- -- 55
2020-06-24 04:00:00 18.8 7 Norte 15 Norte 0 -- -- 59
2020-06-24 03:00:00 19.7 14 Norte 21 Norte 0 -- -- 58
2020-06-24 02:00:00 20.2 11 Norte 20 Norte 0 -- -- 57
2020-06-24 01:00:00 19.9 11 Norte 18 Norte 0 -- -- 56
2020-06-24 00:00:00 22.8 5 Noroeste 23 Sur 0 -- -- 43
2020-06-23 23:00:00 26.2 11 Noroeste 15 Noroeste 0 -- -- 34
2020-06-23 22:00:00 25.8 8 Norte 13 Norte 0 -- -- 38
2020-06-23 21:00:00 29.6 11 Norte 33 Nordeste 0 -- -- 34
2020-06-23 20:00:00 33.8 15 Norte 22 Norte 0 -- -- 25
2020-06-23 19:00:00 34.6 9 Norte 21 Norte 0 -- -- 22
2020-06-23 18:00:00 33.4 7 Sur 16 Sudoeste 0 -- -- 22
2020-06-23 17:00:00 33.5 7 Nordeste 18 Nordeste 0 -- -- 23
2020-06-23 16:00:00 34.6 8 Este 24 Este 0 -- -- 23
2020-06-23 15:00:00 32.3 9 Sudoeste 18 Oeste 0 -- -- 25
2020-06-23 14:00:00 30.9 10 Sur 17 Sur 0 -- -- 28
2020-06-23 13:00:00 30.8 5 Sudeste 14 Nordeste 0 -- -- 28
2020-06-23 12:00:00 29 7 Este 13 Este 0 -- -- 30
2020-06-23 11:00:00 27.2 4 Sudeste 12 Este 0 -- -- 34
2020-06-23 10:00:00 25.7 6 Norte 10 Norte 0 -- -- 33
2020-06-23 09:00:00 20.2 6 Norte 11 Norte 0 -- -- 51
2020-06-23 08:00:00 14.5 9 Norte 10 Norte 0 -- -- 66
2020-06-23 07:00:00 12 7 Norte 9 Norte 0 -- -- 74
2020-06-23 06:00:00 12.3 6 Norte 12 Oeste 0 -- -- 76
2020-06-23 05:00:00 14.8 4 Norte 11 Oeste 0 -- -- 67
2020-06-23 04:00:00 16.6 3 Norte 11 Oeste 0 -- -- 62
2020-06-23 03:00:00 15.1 3 Sudoeste 9 Noroeste 0 -- -- 64
2020-06-23 02:00:00 17.8 8 Norte 12 Noroeste 0 -- -- 55
2020-06-23 01:00:00 19.6 4 Norte 12 Norte 0 -- -- 50
2020-06-23 00:00:00 19.8 9 Norte 15 Norte 0 -- -- 49
2020-06-22 23:00:00 21.7 5 Norte 8 Noroeste 0 -- -- 43
2020-06-22 22:00:00 25.3 2 Sudoeste 4 Sur 0 -- -- 35
2020-06-22 21:00:00 30.2 3 Sudoeste 10 Sudeste 0 -- -- 30
2020-06-22 20:00:00 30.3 5 Sur 16 Sudoeste 0 -- -- 27
2020-06-22 19:00:00 30.3 8 Sur 22 Sur 0 -- -- 28
2020-06-22 18:00:00 29.9 9 Sudeste 21 Sudeste 0 -- -- 28
2020-06-22 17:00:00 29.1 11 Sur 24 Sur 0 -- -- 33
2020-06-22 16:00:00 27.7 12 Sur 23 Sur 0 -- -- 39
2020-06-22 15:00:00 26.3 10 Sur 21 Sur 0 -- -- 42
2020-06-22 14:00:00 25.4 9 Sur 22 Sudeste 0 -- -- 43
2020-06-22 13:00:00 24 10 Sur 20 Sur 0 -- -- 49
2020-06-22 12:00:00 22.3 7 Sur 16 Sur 0 -- -- 57
2020-06-22 11:00:00 21.1 4 Sur 10 Sur 0 -- -- 58
2020-06-22 10:00:00 17.6 5 Sur 10 Sur 0 -- -- 70
2020-06-22 09:00:00 14.8 3 Sur 5 Sur 0 -- -- 77
2020-06-22 08:00:00 11.4 3 Norte 6 Nordeste 0 -- -- 87
2020-06-22 07:00:00 9.8 6 Norte 13 Norte 0 -- -- 94
2020-06-22 06:00:00 10.8 3 Oeste 5 Norte 0 -- -- 92
2020-06-22 05:00:00 11 2 Este 9 Norte 0 -- -- 91
2020-06-22 04:00:00 13 5 Noroeste 8 Noroeste 0 -- -- 87
2020-06-22 03:00:00 14.5 0 Calma 5 Noroeste 0 -- -- 82
2020-06-22 02:00:00 15.1 0 Calma 9 Este 0 -- -- 79
2020-06-22 01:00:00 15.6 8 Este 10 Sudeste 0 -- -- 76
2020-06-22 00:00:00 16.9 4 Norte 9 Este 0 -- -- 70
2020-06-21 23:00:00 18.5 4 Noroeste 19 Noroeste 0 -- -- 64
2020-06-21 22:00:00 20.2 13 Noroeste 28 Noroeste 0 -- -- 59
2020-06-21 21:00:00 23.1 18 Noroeste 36 Norte 0 -- -- 52
2020-06-21 20:00:00 25 22 Noroeste 38 Noroeste 0 -- -- 47
2020-06-21 19:00:00 26.3 22 Noroeste 39 Noroeste 0 -- -- 44
2020-06-21 18:00:00 27.2 19 Noroeste 34 Noroeste 0 -- -- 42
2020-06-21 17:00:00 27.7 21 Noroeste 39 Norte 0 -- -- 39
2020-06-21 16:00:00 27.6 18 Norte 33 Noroeste 0 -- -- 40
2020-06-21 15:00:00 26.9 17 Norte 29 Noroeste 0 -- -- 41
2020-06-21 14:00:00 26 11 Noroeste 29 Noroeste 0 -- -- 40
2020-06-21 13:00:00 25 15 Noroeste 28 Noroeste 0 -- -- 40
2020-06-21 12:00:00 23.6 15 Noroeste 26 Noroeste 0 -- -- 38
2020-06-21 11:00:00 23.1 9 Oeste 20 Oeste 0 -- -- 41
2020-06-21 10:00:00 22 5 Noroeste 18 Oeste 0 -- -- 44
2020-06-21 09:00:00 17.5 10 Noroeste 17 Noroeste 0 -- -- 54
2020-06-21 08:00:00 12.6 12 Norte 21 Norte 0 -- -- 69
2020-06-21 07:00:00 10.9 15 Noroeste 23 Norte 0 -- -- 73
2020-06-21 06:00:00 10.8 14 Norte 21 Noroeste 0 -- -- 74
2020-06-21 05:00:00 10 9 Norte 11 Norte 0 -- -- 75
2020-06-21 04:00:00 12.2 5 Norte 21 Norte 0 -- -- 71
2020-06-21 03:00:00 14.2 14 Noroeste 23 Noroeste 0 -- -- 64
2020-06-21 02:00:00 14.2 5 Noroeste 18 Noroeste 0 -- -- 75
2020-06-21 01:00:00 15.5 12 Noroeste 27 Noroeste 0 -- -- 72
2020-06-21 00:00:00 16.5 16 Noroeste 31 Noroeste 0 -- -- 64
2020-06-20 23:00:00 18.2 18 Noroeste 31 Noroeste 0 -- -- 52
2020-06-20 22:00:00 19.5 17 Noroeste 37 Noroeste 0 -- -- 43
2020-06-20 21:00:00 22.9 17 Noroeste 32 Noroeste 0 -- -- 38
2020-06-20 20:00:00 25.8 19 Noroeste 39 Norte 0 -- -- 33
2020-06-20 19:00:00 27 21 Noroeste 35 Norte 0 -- -- 35
2020-06-20 18:00:00 29 11 Norte 26 Noroeste 0 -- -- 34
2020-06-20 17:00:00 27.2 10 Noroeste 20 Sudeste 0 -- -- 37
2020-06-20 16:00:00 26.7 11 Sur 28 Sur 0 -- -- 34
2020-06-20 15:00:00 25.6 9 Sudoeste 25 Sur 0 -- -- 38
2020-06-20 14:00:00 23.6 11 Sur 24 Sur 0 -- -- 40
2020-06-20 13:00:00 22.7 9 Sur 18 Sur 0 -- -- 45
2020-06-20 12:00:00 20.3 8 Sur 18 Sur 0 -- -- 48
2020-06-20 11:00:00 18.8 7 Sur 15 Sudeste 0 -- -- 56
2020-06-20 10:00:00 16.9 6 Sur 10 Sur 0 -- -- 61
2020-06-20 09:00:00 13.4 4 Sur 6 Sur 0 -- -- 74
2020-06-20 08:00:00 10.4 4 Sudoeste 6 Sur 0 -- -- 86
2020-06-20 07:00:00 8.5 0 Calma 6 Sur 0 -- -- 91
2020-06-20 06:00:00 9.1 2 Sudoeste 12 Norte 0 -- -- 89
2020-06-20 05:00:00 10 4 Norte 13 Noroeste 0 -- -- 84
2020-06-20 04:00:00 10.6 9 Norte 15 Norte 0 -- -- 82
2020-06-20 03:00:00 12 6 Norte 22 Noroeste 0 -- -- 75
2020-06-20 02:00:00 12.8 8 Noroeste 13 Oeste 0 -- -- 70
2020-06-20 01:00:00 14.8 9 Oeste 15 Oeste 0 -- -- 62
2020-06-20 00:00:00 15.4 9 Noroeste 14 Oeste 0 -- -- 59
2020-06-19 23:00:00 16 6 Noroeste 18 Noroeste 0 -- -- 57
2020-06-19 22:00:00 17.6 9 Noroeste 27 Noroeste 0 -- -- 51
2020-06-19 21:00:00 21.2 13 Noroeste 35 Noroeste 0 -- -- 44
2020-06-19 20:00:00 23.5 19 Noroeste 33 Noroeste 0 -- -- 38
2020-06-19 19:00:00 24.9 17 Noroeste 33 Oeste 0 -- -- 32
2020-06-19 18:00:00 26.3 12 Noroeste 40 Norte 0 -- -- 29
2020-06-19 17:00:00 25.1 19 Noroeste 35 Noroeste 0 -- -- 31
2020-06-19 16:00:00 23 8 Sur 19 Sur 0 -- -- 37
2020-06-19 15:00:00 22.5 10 Oeste 27 Sur 0 -- -- 37
2020-06-19 14:00:00 21.2 14 Sur 25 Sur 0 -- -- 40
2020-06-19 13:00:00 20.2 11 Sur 20 Sur 0 -- -- 42
2020-06-19 12:00:00 18.9 7 Sudoeste 15 Sur 0 -- -- 48
2020-06-19 11:00:00 17.9 7 Sur 13 Sudoeste 0 -- -- 53
2020-06-19 10:00:00 17.7 2 Sur 10 Nordeste 0 -- -- 54
2020-06-19 09:00:00 11.8 8 Nordeste 10 Norte 0 -- -- 78
2020-06-19 08:00:00 7.7 8 Norte 11 Norte 0 -- -- 90
2020-06-19 07:00:00 5.6 12 Norte 14 Norte 0 -- -- 94
2020-06-19 06:00:00 5.6 3 Noroeste 8 Este 0 -- -- 90
2020-06-19 05:00:00 8 3 Norte 7 Nordeste 0 -- -- 89
2020-06-19 04:00:00 8.3 7 Nordeste 9 Nordeste 0 -- -- 86
2020-06-19 03:00:00 9.5 4 Sur 9 Sudeste 0 -- -- 79
2020-06-19 02:00:00 10.2 5 Sudeste 17 Sudeste 0 -- -- 74
2020-06-19 01:00:00 11.7 2 Sur 16 Noroeste 0 -- -- 67
2020-06-19 00:00:00 12.9 8 Noroeste 15 Noroeste 0 -- -- 62
2020-06-18 23:00:00 13.6 9 Noroeste 17 Noroeste 0 -- -- 58
2020-06-18 22:00:00 15.4 12 Noroeste 29 Noroeste 0 -- -- 52
2020-06-18 21:00:00 18.8 16 Noroeste 35 Noroeste 0 -- -- 44
2020-06-18 20:00:00 21.5 18 Noroeste 34 Noroeste 0 -- -- 40
2020-06-18 19:00:00 20 14 Noroeste 27 Noroeste 0 -- -- 42
2020-06-18 18:00:00 20.9 7 Noroeste 22 Oeste 0 -- -- 38
2020-06-18 17:00:00 21.4 6 Sudeste 22 Norte 0 -- -- 39
2020-06-18 16:00:00 20.1 8 Noroeste 20 Noroeste 0 -- -- 39
2020-06-18 15:00:00 19.7 9 Oeste 20 Sur 0 -- -- 44
2020-06-18 14:00:00 18.3 7 Sudeste 20 Sudeste 0 -- -- 47
2020-06-18 13:00:00 18.2 8 Oeste 21 Sudoeste 0 -- -- 48
2020-06-18 12:00:00 17.6 7 Sudeste 19 Sur 0 -- -- 51
2020-06-18 11:00:00 16.1 6 Sur 15 Sudeste 0 -- -- 56
2020-06-18 10:00:00 16.8 3 Nordeste 15 Nordeste 0 -- -- 55
2020-06-18 09:00:00 10.8 10 Nordeste 14 Norte 0 -- -- 80
2020-06-18 08:00:00 7.3 4 Norte 10 Norte 0 -- -- 91
2020-06-18 07:00:00 4.5 6 Nordeste 11 Norte 0 -- -- 93
2020-06-18 06:00:00 5.7 10 Norte 13 Norte 0 -- -- 93
2020-06-18 05:00:00 5.9 6 Nordeste 12 Norte 0 -- -- 93
2020-06-18 04:00:00 5.9 10 Norte 12 Norte 0 -- -- 90
2020-06-18 03:00:00 6.9 7 Norte 8 Norte 0 -- -- 90
2020-06-18 02:00:00 8.7 3 Norte 6 Nordeste 0 -- -- 84
2020-06-18 01:00:00 9.5 3 Nordeste 10 Oeste 0 -- -- 80
2020-06-18 00:00:00 11.3 7 Oeste 12 Noroeste 0 -- -- 73
2020-06-17 23:00:00 12.6 6 Noroeste 19 Noroeste 0 -- -- 68
2020-06-17 22:00:00 13.5 10 Noroeste 22 Norte 0 -- -- 63
2020-06-17 21:00:00 14.8 14 Noroeste 24 Noroeste 0 -- -- 61
2020-06-17 20:00:00 15.4 14 Oeste 29 Oeste 0 -- -- 58
2020-06-17 19:00:00 16.9 10 Noroeste 18 Noroeste 0 -- -- 50
2020-06-17 18:00:00 18.6 8 Norte 19 Noroeste 0 -- -- 46
2020-06-17 17:00:00 18.6 9 Noroeste 23 Noroeste 0 -- -- 46
2020-06-17 16:00:00 18.6 8 Noroeste 18 Noroeste 0 -- -- 44
2020-06-17 15:00:00 17.6 5 Norte 17 Nordeste 0 -- -- 45
2020-06-17 14:00:00 18.9 11 Norte 22 Noroeste 0 -- -- 43
2020-06-17 13:00:00 17.9 6 Nordeste 20 Este 0 -- -- 44
2020-06-17 12:00:00 15.7 9 Nordeste 19 Norte 0 -- -- 51
2020-06-17 11:00:00 15.5 12 Norte 19 Norte 0 -- -- 51
2020-06-17 10:00:00 16.1 12 Noroeste 21 Noroeste 0 -- -- 54
2020-06-17 09:00:00 12.8 10 Norte 23 Noroeste 0 -- -- 67
2020-06-17 08:00:00 9.2 6 Norte 16 Noroeste 0 -- -- 82
2020-06-17 07:00:00 8.1 11 Noroeste 19 Noroeste 0 -- -- 86
2020-06-17 06:00:00 9.1 13 Oeste 22 Oeste 0 -- -- 81
2020-06-17 05:00:00 9.2 11 Noroeste 21 Noroeste 0 -- -- 82
2020-06-17 04:00:00 9.5 12 Noroeste 19 Oeste 0 -- -- 82
2020-06-17 03:00:00 9.6 8 Noroeste 13 Noroeste 0 -- -- 82
2020-06-17 02:00:00 10.1 4 Oeste 9 Sudoeste 0 -- -- 79
2020-06-17 01:00:00 10.9 3 Sudoeste 13 Noroeste 0 -- -- 77
2020-06-17 00:00:00 11.5 9 Noroeste 17 Noroeste 0 -- -- 74
2020-06-16 23:00:00 12.1 5 Norte 17 Oeste 0 -- -- 70
2020-06-16 22:00:00 13.1 8 Noroeste 21 Noroeste 0 -- -- 65
2020-06-16 21:00:00 15.2 15 Noroeste 33 Oeste 0 -- -- 58
2020-06-16 20:00:00 14.9 17 Noroeste 41 Noroeste 0 -- -- 58
2020-06-16 19:00:00 16.4 22 Noroeste 40 Oeste 0 -- -- 53
2020-06-16 18:00:00 18.1 21 Noroeste 41 Oeste 0 -- -- 46
2020-06-16 17:00:00 18.9 21 Noroeste 41 Oeste 0 -- -- 48
2020-06-16 16:00:00 19.1 25 Oeste 45 Oeste 0 -- -- 51
2020-06-16 15:00:00 19.8 20 Oeste 42 Oeste 0 -- -- 45
2020-06-16 14:00:00 19 26 Oeste 46 Oeste 0 -- -- 47
2020-06-16 13:00:00 18.2 19 Oeste 36 Noroeste 0 -- -- 52
2020-06-16 12:00:00 17 16 Oeste 31 Oeste 0 -- -- 59
2020-06-16 11:00:00 14.4 12 Oeste 20 Oeste 0 -- -- 71
2020-06-16 10:00:00 13.2 5 Sudoeste 9 Oeste 0 -- -- 73
2020-06-16 09:00:00 11.8 2 Sur 6 Oeste 0 -- -- 81
2020-06-16 08:00:00 11.2 6 Oeste 10 Oeste 0 -- -- 81
2020-06-16 07:00:00 9.9 4 Norte 8 Noroeste 0 -- -- 87
2020-06-16 06:00:00 9.6 6 Noroeste 13 Noroeste 0 -- -- 89
2020-06-16 05:00:00 9.7 8 Noroeste 17 Noroeste 0 -- -- 88
2020-06-16 04:00:00 9.6 14 Noroeste 22 Noroeste 0 -- -- 86
2020-06-16 03:00:00 9.1 4 Sudoeste 14 Noroeste 0 -- -- 83
2020-06-16 02:00:00 10.7 10 Oeste 15 Noroeste 0 -- -- 78
2020-06-16 01:00:00 11.1 9 Noroeste 17 Noroeste 0 -- -- 74
2020-06-16 00:00:00 11.3 8 Noroeste 15 Noroeste 0 -- -- 77
2020-06-15 23:00:00 11.7 11 Noroeste 19 Noroeste 0 -- -- 75
2020-06-15 22:00:00 12.9 10 Noroeste 24 Noroeste 0 -- -- 72
2020-06-15 21:00:00 14.3 11 Noroeste 32 Noroeste 0 -- -- 66
2020-06-15 20:00:00 15.5 12 Noroeste 30 Noroeste 0 -- -- 59
2020-06-15 19:00:00 17.1 15 Noroeste 32 Noroeste 0 -- -- 54
2020-06-15 18:00:00 17.4 16 Noroeste 32 Noroeste 0 -- -- 50
2020-06-15 17:00:00 18.7 19 Noroeste 32 Noroeste 0 -- -- 50
2020-06-15 16:00:00 19.5 19 Noroeste 31 Noroeste 0 -- -- 46
2020-06-15 15:00:00 18.7 15 Noroeste 32 Norte 0 -- -- 49
2020-06-15 14:00:00 18 17 Noroeste 32 Noroeste 0 -- -- 50
2020-06-15 13:00:00 15.9 17 Noroeste 29 Norte 0 -- -- 57
2020-06-15 12:00:00 14.2 10 Noroeste 18 Noroeste 0 -- -- 63
2020-06-15 11:00:00 13.5 12 Noroeste 21 Noroeste 0 -- -- 68
2020-06-15 10:00:00 13.1 5 Norte 15 Oeste 0 -- -- 71
2020-06-15 09:00:00 11.5 3 Nordeste 12 Noroeste 0 -- -- 79
2020-06-15 08:00:00 10.6 8 Noroeste 14 Noroeste 0 -- -- 81
2020-06-15 07:00:00 9 8 Oeste 15 Oeste 0 -- -- 84
2020-06-15 06:00:00 8.6 6 Oeste 14 Oeste 0 -- -- 86
2020-06-15 05:00:00 8.4 5 Noroeste 15 Noroeste 0 -- -- 86
2020-06-15 04:00:00 8.8 12 Noroeste 16 Noroeste 0 -- -- 85
2020-06-15 03:00:00 9 8 Noroeste 14 Oeste 0 -- -- 83
2020-06-15 02:00:00 8.8 8 Oeste 16 Oeste 0 -- -- 82
2020-06-15 01:00:00 9.3 10 Oeste 16 Oeste 0 -- -- 81
2020-06-15 00:00:00 9.8 7 Oeste 22 Oeste 0 -- -- 81
2020-06-14 23:00:00 10.7 9 Noroeste 17 Oeste 0 -- -- 80
2020-06-14 22:00:00 11.8 6 Oeste 29 Oeste 0 -- -- 77
2020-06-14 21:00:00 13.1 14 Noroeste 28 Noroeste 0 -- -- 69
2020-06-14 20:00:00 14.5 14 Noroeste 33 Oeste 0 -- -- 63
2020-06-14 19:00:00 16.9 13 Oeste 31 Oeste 0 -- -- 49
2020-06-14 18:00:00 16.5 18 Oeste 35 Oeste 0 -- -- 51
2020-06-14 17:00:00 18.5 18 Noroeste 35 Noroeste 0 -- -- 49
2020-06-14 16:00:00 17.5 16 Noroeste 32 Noroeste 0 -- -- 54
2020-06-14 15:00:00 18.2 16 Noroeste 34 Noroeste 0 -- -- 49
2020-06-14 14:00:00 17.3 17 Noroeste 30 Oeste 0 -- -- 51
2020-06-14 13:00:00 16.7 13 Noroeste 27 Oeste 0 -- -- 53
2020-06-14 12:00:00 15.2 10 Oeste 24 Noroeste 0 -- -- 56
2020-06-14 11:00:00 13 14 Oeste 26 Oeste 0 -- -- 65
2020-06-14 10:00:00 12 2 Este 8 Sur 0 -- -- 68
2020-06-14 09:00:00 10.1 5 Oeste 8 Sur 0 -- -- 72
2020-06-14 08:00:00 8.3 0 Calma 6 Sudoeste 0 -- -- 80
2020-06-14 07:00:00 8 5 Noroeste 13 Noroeste 0 -- -- 79
2020-06-14 06:00:00 7.2 6 Norte 13 Oeste 0 -- -- 86
2020-06-14 05:00:00 7.1 6 Noroeste 15 Oeste 0 -- -- 86
2020-06-14 04:00:00 7.1 7 Norte 13 Noroeste 0 -- -- 86
2020-06-14 03:00:00 7.5 4 Nordeste 15 Noroeste 0 -- -- 81
2020-06-14 02:00:00 9 10 Noroeste 20 Oeste 0 -- -- 76
2020-06-14 01:00:00 9.2 6 Noroeste 10 Noroeste 0 -- -- 79
2020-06-14 00:00:00 9.3 5 Noroeste 23 Noroeste 0 -- -- 77
2020-06-13 23:00:00 10.3 11 Noroeste 20 Oeste 0 -- -- 74
2020-06-13 22:00:00 12 13 Noroeste 29 Noroeste 0 -- -- 68
2020-06-13 21:00:00 13.4 11 Noroeste 31 Oeste 0 -- -- 64
2020-06-13 20:00:00 14.5 13 Noroeste 29 Noroeste 0 -- -- 58
2020-06-13 19:00:00 16.2 18 Noroeste 33 Noroeste 0 -- -- 52
2020-06-13 18:00:00 16.2 18 Noroeste 35 Noroeste 0 -- -- 54
2020-06-13 17:00:00 15.5 18 Noroeste 41 Oeste 0 -- -- 57
2020-06-13 16:00:00 15.9 18 Noroeste 32 Oeste 0 -- -- 60
2020-06-13 15:00:00 16.2 17 Oeste 31 Oeste 0 -- -- 53
2020-06-13 14:00:00 16.7 20 Oeste 35 Oeste 0 -- -- 53
2020-06-13 13:00:00 15.7 17 Oeste 40 Sudoeste 0 -- -- 56
2020-06-13 12:00:00 14.8 24 Oeste 40 Oeste 0 -- -- 58
2020-06-13 11:00:00 13.1 15 Oeste 29 Oeste 0 -- -- 66
2020-06-13 10:00:00 10.9 13 Oeste 23 Oeste 0 -- -- 72
2020-06-13 09:00:00 9.7 12 Oeste 20 Oeste 0 -- -- 77
2020-06-13 08:00:00 9 13 Oeste 25 Oeste 0 -- -- 80
2020-06-13 07:00:00 8.5 14 Oeste 28 Oeste 0 -- -- 83
2020-06-13 06:00:00 8.9 14 Oeste 27 Oeste 0 -- -- 79
2020-06-13 05:00:00 8.5 5 Noroeste 18 Oeste 0 -- -- 82
2020-06-13 04:00:00 8 8 Noroeste 30 Noroeste 0 -- -- 84
2020-06-13 03:00:00 8.7 15 Noroeste 30 Oeste 0 -- -- 81
2020-06-13 02:00:00 8.8 15 Noroeste 32 Oeste 0 -- -- 81
2020-06-13 01:00:00 8.9 10 Oeste 22 Oeste 0 -- -- 84
2020-06-13 00:00:00 9.5 11 Oeste 21 Oeste 0 -- -- 82
2020-06-12 23:00:00 9.1 8 Oeste 22 Noroeste 0 -- -- 83
2020-06-12 22:00:00 10.1 12 Oeste 31 Noroeste 0 -- -- 73
2020-06-12 21:00:00 11.7 14 Oeste 30 Oeste 0 -- -- 66
2020-06-12 20:00:00 14 19 Oeste 37 Oeste 0 -- -- 58
2020-06-12 19:00:00 13.7 19 Oeste 37 Oeste 0 -- -- 62
2020-06-12 18:00:00 13.2 15 Oeste 42 Oeste 0 -- -- 63
2020-06-12 17:00:00 13.2 18 Oeste 34 Oeste 0 -- -- 63
2020-06-12 16:00:00 13.7 17 Oeste 35 Oeste 0 -- -- 63
2020-06-12 15:00:00 12.5 18 Oeste 46 Oeste 0 -- -- 65
2020-06-12 14:00:00 11 19 Oeste 36 Oeste 0.2 -- -- 71
2020-06-12 13:00:00 11.2 10 Oeste 33 Oeste 0 -- -- 73
2020-06-12 12:00:00 9.6 12 Oeste 33 Oeste 0 -- -- 74
2020-06-12 11:00:00 10.3 21 Oeste 33 Oeste 0 -- -- 65
2020-06-12 10:00:00 9.1 18 Oeste 30 Oeste 0 -- -- 70
2020-06-12 09:00:00 8.5 15 Oeste 34 Sudoeste 0 -- -- 71
2020-06-12 08:00:00 7.8 17 Oeste 40 Oeste 0 -- -- 73
2020-06-12 07:00:00 7.2 19 Oeste 36 Oeste 0 -- -- 77
2020-06-12 06:00:00 7.7 11 Noroeste 28 Noroeste 0 -- -- 77
2020-06-12 05:00:00 8.6 18 Oeste 37 Oeste 0 -- -- 81
2020-06-12 04:00:00 8.2 15 Oeste 40 Sudoeste 0.4 -- -- 86
2020-06-12 03:00:00 9.6 19 Oeste 41 Oeste 0 -- -- 74
2020-06-12 02:00:00 9.8 16 Sudoeste 37 Sudoeste 0 -- -- 69
2020-06-12 01:00:00 9.1 18 Oeste 33 Sudoeste 0 -- -- 70
2020-06-12 00:00:00 8.6 14 Sudoeste 28 Sudoeste 0 -- -- 72
2020-06-11 23:00:00 8.5 8 Sudoeste 21 Sudoeste 0 -- -- 71
2020-06-11 22:00:00 8.5 6 Sudoeste 18 Oeste 0 -- -- 76
2020-06-11 21:00:00 9.4 9 Oeste 29 Noroeste 0 -- -- 73
2020-06-11 20:00:00 9.4 20 Noroeste 42 Noroeste 0 -- -- 72
2020-06-11 19:00:00 10.2 18 Noroeste 48 Oeste 0 -- -- 77
2020-06-11 18:00:00 12.7 21 Oeste 42 Noroeste 0.2 -- -- 62
2020-06-11 17:00:00 14.9 27 Oeste 43 Sudoeste 0.2 -- -- 52
2020-06-11 16:00:00 13.1 18 Oeste 36 Oeste 0 -- -- 68
2020-06-11 15:00:00 14.2 21 Oeste 41 Sudoeste 0 -- -- 71
2020-06-11 14:00:00 12.1 13 Noroeste 33 Oeste 0.8 -- -- 85
2020-06-11 13:00:00 13.5 13 Oeste 27 Oeste 0.4 -- -- 78
2020-06-11 12:00:00 14.2 19 Oeste 36 Sudoeste 0 -- -- 66
2020-06-11 11:00:00 14.7 22 Oeste 41 Oeste 0 -- -- 66
2020-06-11 10:00:00 14.4 23 Oeste 42 Oeste 0 -- -- 68
2020-06-11 09:00:00 12.5 16 Noroeste 31 Oeste 0 -- -- 75
2020-06-11 08:00:00 10.8 11 Oeste 25 Oeste 0 -- -- 79
2020-06-11 07:00:00 11.3 11 Sudoeste 32 Oeste 0 -- -- 68
2020-06-11 06:00:00 11.2 12 Oeste 28 Oeste 0 -- -- 59
2020-06-11 05:00:00 10.4 9 Noroeste 20 Oeste 0 -- -- 64
2020-06-11 04:00:00 11.3 11 Oeste 23 Oeste 0 -- -- 74
2020-06-11 03:00:00 12.2 15 Oeste 33 Oeste 0 -- -- 75
2020-06-11 02:00:00 12.6 11 Noroeste 23 Noroeste 0 -- -- 71
2020-06-11 01:00:00 13.6 11 Noroeste 23 Oeste 0 -- -- 66
2020-06-11 00:00:00 14.1 10 Noroeste 21 Noroeste 0 -- -- 64
2020-06-10 23:00:00 15.2 10 Oeste 20 Noroeste 0 -- -- 56
2020-06-10 22:00:00 16.4 10 Noroeste 31 Noroeste 0 -- -- 48
2020-06-10 21:00:00 18 13 Noroeste 25 Oeste 0 -- -- 41
2020-06-10 20:00:00 21.1 10 Noroeste 31 Noroeste 0 -- -- 38
2020-06-10 19:00:00 23 14 Noroeste 31 Oeste 0 -- -- 35
2020-06-10 18:00:00 23.7 13 Noroeste 34 Noroeste 0 -- -- 30
2020-06-10 17:00:00 23.7 7 Noroeste 21 Noroeste 0 -- -- 33
2020-06-10 16:00:00 21.9 5 Sur 23 Sur 0 -- -- 39
2020-06-10 15:00:00 20.2 9 Sudoeste 22 Sudoeste 0 -- -- 43
2020-06-10 14:00:00 19.5 8 Sur 30 Sudeste 0 -- -- 45
2020-06-10 13:00:00 18.1 9 Sur 21 Sur 0 -- -- 49
2020-06-10 12:00:00 16.4 10 Sur 19 Sur 0 -- -- 51
2020-06-10 11:00:00 14.8 8 Sur 17 Sur 0 -- -- 56
2020-06-10 10:00:00 13.5 4 Sur 10 Sudoeste 0 -- -- 63
2020-06-10 09:00:00 10.2 4 Sur 8 Sudoeste 0 -- -- 75
2020-06-10 08:00:00 6.7 3 Norte 6 Oeste 0 -- -- 87
2020-06-10 07:00:00 5.9 2 Oeste 5 Sudoeste 0 -- -- 88
2020-06-10 06:00:00 5.9 0 Calma 4 Sudoeste 0 -- -- 87
2020-06-10 05:00:00 6.7 0 Calma 5 Nordeste 0 -- -- 86
2020-06-10 04:00:00 8.1 2 Oeste 6 Norte 0 -- -- 82
2020-06-10 03:00:00 8.6 4 Norte 6 Norte 0 -- -- 79
2020-06-10 02:00:00 9.3 4 Norte 10 Nordeste 0 -- -- 76
2020-06-10 01:00:00 10.5 2 Nordeste 8 Nordeste 0 -- -- 70
2020-06-10 00:00:00 11.4 2 Oeste 18 Norte 0 -- -- 66
2020-06-09 23:00:00 11.9 15 Norte 21 Norte 0 -- -- 65
2020-06-09 22:00:00 13.4 14 Nordeste 22 Nordeste 0 -- -- 60
2020-06-09 21:00:00 16.2 13 Nordeste 28 Nordeste 0 -- -- 49
2020-06-09 20:00:00 21 9 Este 24 Sur 0 -- -- 34
2020-06-09 19:00:00 19.2 13 Sudeste 24 Sudeste 0 -- -- 37
2020-06-09 18:00:00 20.6 11 Sudeste 27 Sudeste 0 -- -- 35
2020-06-09 17:00:00 21.2 10 Norte 24 Nordeste 0 -- -- 33
2020-06-09 16:00:00 21.2 9 Norte 19 Nordeste 0 -- -- 33
2020-06-09 15:00:00 19.8 8 Sur 19 Nordeste 0 -- -- 36
2020-06-09 14:00:00 18.6 5 Sudoeste 21 Sudeste 0 -- -- 36
2020-06-09 13:00:00 17.9 5 Norte 21 Noroeste 0 -- -- 40
2020-06-09 12:00:00 15.8 6 Nordeste 19 Nordeste 0 -- -- 47
2020-06-09 11:00:00 13.6 5 Sudeste 17 Sur 0 -- -- 56
2020-06-09 10:00:00 12.1 5 Sur 9 Sur 0 -- -- 62
2020-06-09 09:00:00 9.6 3 Nordeste 6 Nordeste 0 -- -- 73
2020-06-09 08:00:00 3.6 0 Calma 6 Noroeste 0 -- -- 88
2020-06-09 07:00:00 2.6 6 Noroeste 8 Norte 0 -- -- 94
2020-06-09 06:00:00 3.6 6 Noroeste 8 Noroeste 0 -- -- 89
2020-06-09 05:00:00 3.8 5 Norte 8 Norte 0 -- -- 89
2020-06-09 04:00:00 4.7 5 Norte 6 Norte 0 -- -- 84
2020-06-09 03:00:00 5.5 0 Calma 4 Sur 0 -- -- 81
2020-06-09 02:00:00 6.9 3 Sudoeste 4 Sudoeste 0 -- -- 77
2020-06-09 01:00:00 8 3 Sudoeste 10 Norte 0 -- -- 71
2020-06-09 00:00:00 8 7 Norte 17 Nordeste 0 -- -- 68
2020-06-08 23:00:00 9.3 13 Nordeste 24 Norte 0 -- -- 64
2020-06-08 22:00:00 11.6 17 Nordeste 28 Nordeste 0 -- -- 56
2020-06-08 21:00:00 15.1 21 Nordeste 35 Norte 0 -- -- 52
2020-06-08 20:00:00 16.9 15 Nordeste 30 Nordeste 0 -- -- 49
2020-06-08 19:00:00 16 18 Nordeste 26 Noroeste 0 -- -- 48
2020-06-08 18:00:00 18.4 14 Norte 24 Noroeste 0 -- -- 42
2020-06-08 17:00:00 17.8 9 Este 29 Norte 0 -- -- 47
2020-06-08 16:00:00 18.8 10 Noroeste 23 Norte 0 -- -- 41
2020-06-08 15:00:00 17.1 4 Norte 20 Norte 0 -- -- 45
2020-06-08 14:00:00 16.9 12 Norte 25 Norte 0 -- -- 46
2020-06-08 13:00:00 17 8 Norte 18 Norte 0 -- -- 46
2020-06-08 12:00:00 16.7 9 Nordeste 21 Nordeste 0 -- -- 46
2020-06-08 11:00:00 15.9 9 Norte 19 Nordeste 0 -- -- 48
2020-06-08 10:00:00 13.3 10 Norte 17 Norte 0 -- -- 54
2020-06-08 09:00:00 10.2 7 Nordeste 10 Norte 0 -- -- 67
2020-06-08 08:00:00 7.6 6 Norte 8 Noroeste 0 -- -- 78
2020-06-08 07:00:00 6.1 7 Norte 17 Oeste 0 -- -- 83
2020-06-08 06:00:00 8.1 7 Oeste 11 Norte 0 -- -- 76
2020-06-08 05:00:00 8 6 Nordeste 12 Norte 0 -- -- 78
2020-06-08 04:00:00 8.1 5 Noroeste 12 Oeste 0 -- -- 75
2020-06-08 03:00:00 6.7 6 Noroeste 9 Noroeste 0 -- -- 83
2020-06-08 02:00:00 9 4 Sudeste 12 Sudeste 0 -- -- 72
2020-06-08 01:00:00 9.3 7 Este 15 Este 0 -- -- 71
2020-06-08 00:00:00 9 6 Este 17 Este 0 -- -- 72
2020-06-07 23:00:00 10.2 7 Este 18 Este 0 -- -- 68
2020-06-07 22:00:00 11.3 10 Nordeste 25 Nordeste 0 -- -- 64
2020-06-07 21:00:00 12.7 12 Nordeste 23 Nordeste 0 -- -- 59
2020-06-07 20:00:00 13.8 13 Nordeste 22 Nordeste 0 -- -- 59
2020-06-07 19:00:00 15.6 11 Este 23 Nordeste 0 -- -- 56
2020-06-07 18:00:00 15.1 8 Sudeste 23 Nordeste 0.2 -- -- 68
2020-06-07 17:00:00 16.5 6 Este 22 Este 0 -- -- 60
2020-06-07 16:00:00 16.5 6 Sudeste 28 Sur 0 -- -- 60
2020-06-07 15:00:00 18.3 4 Noroeste 22 Sudoeste 0 -- -- 42
2020-06-07 14:00:00 18.2 12 Noroeste 28 Noroeste 0 -- -- 43
2020-06-07 13:00:00 16.9 14 Noroeste 28 Noroeste 0 -- -- 49
2020-06-07 12:00:00 16.5 18 Norte 29 Norte 0 -- -- 51
2020-06-07 11:00:00 15.9 9 Noroeste 26 Nordeste 0 -- -- 59
2020-06-07 10:00:00 14.4 10 Norte 14 Nordeste 0 -- -- 68
2020-06-07 09:00:00 12.5 9 Oeste 20 Oeste 0 -- -- 75
2020-06-07 08:00:00 10.7 7 Norte 13 Oeste 0 -- -- 84
2020-06-07 07:00:00 9.5 4 Noroeste 10 Oeste 0 -- -- 88
2020-06-07 06:00:00 9.9 7 Norte 13 Norte 0 -- -- 87
2020-06-07 05:00:00 9.7 6 Norte 11 Norte 0 -- -- 87
2020-06-07 04:00:00 11.4 4 Norte 12 Noroeste 0 -- -- 81
2020-06-07 03:00:00 12 5 Oeste 13 Noroeste 0 -- -- 77
2020-06-07 02:00:00 12 8 Noroeste 16 Noroeste 0 -- -- 77
2020-06-07 01:00:00 12.2 8 Noroeste 17 Oeste 0 -- -- 77
2020-06-07 00:00:00 12.8 5 Noroeste 13 Oeste 0 -- -- 74